sensor_id;sensor_type;location;lat;lon;timestamp;P1;durP1;ratioP1;P2;durP2;ratioP2
3155;SDS011;1588;50.892;7.082;2022-07-09T00:03:27;9.40;;;6.33;;
3155;SDS011;1588;50.892;7.082;2022-07-09T00:08:29;10.60;;;7.00;;
3155;SDS011;1588;50.892;7.082;2022-07-09T00:13:32;8.87;;;6.27;;
3155;SDS011;1588;50.892;7.082;2022-07-09T00:18:35;11.70;;;7.53;;
3155;SDS011;1588;50.892;7.082;2022-07-09T00:23:37;11.80;;;7.40;;
3155;SDS011;1588;50.892;7.082;2022-07-09T00:28:40;14.90;;;7.63;;
3155;SDS011;1588;50.892;7.082;2022-07-09T00:33:42;14.47;;;7.50;;
3155;SDS011;1588;50.892;7.082;2022-07-09T00:38:45;9.10;;;7.07;;
3155;SDS011;1588;50.892;7.082;2022-07-09T00:43:48;18.30;;;6.90;;
3155;SDS011;1588;50.892;7.082;2022-07-09T00:48:51;11.07;;;6.60;;
3155;SDS011;1588;50.892;7.082;2022-07-09T00:53:53;11.07;;;6.00;;
3155;SDS011;1588;50.892;7.082;2022-07-09T00:58:57;10.17;;;5.90;;
3155;SDS011;1588;50.892;7.082;2022-07-09T01:04:00;9.27;;;6.37;;
3155;SDS011;1588;50.892;7.082;2022-07-09T01:09:03;11.10;;;5.70;;
3155;SDS011;1588;50.892;7.082;2022-07-09T01:14:06;12.80;;;6.33;;
3155;SDS011;1588;50.892;7.082;2022-07-09T01:19:09;11.17;;;5.43;;
3155;SDS011;1588;50.892;7.082;2022-07-09T01:24:12;11.50;;;6.20;;
3155;SDS011;1588;50.892;7.082;2022-07-09T01:29:15;9.80;;;6.73;;
3155;SDS011;1588;50.892;7.082;2022-07-09T01:34:36;8.97;;;5.93;;
3155;SDS011;1588;50.892;7.082;2022-07-09T01:39:39;9.10;;;5.47;;
3155;SDS011;1588;50.892;7.082;2022-07-09T01:44:50;10.37;;;6.03;;
3155;SDS011;1588;50.892;7.082;2022-07-09T01:49:52;8.23;;;6.00;;
3155;SDS011;1588;50.892;7.082;2022-07-09T01:54:56;10.07;;;6.27;;
3155;SDS011;1588;50.892;7.082;2022-07-09T01:59:58;7.90;;;5.70;;
3155;SDS011;1588;50.892;7.082;2022-07-09T02:05:00;10.37;;;6.10;;
3155;SDS011;1588;50.892;7.082;2022-07-09T02:10:04;9.90;;;6.13;;
3155;SDS011;1588;50.892;7.082;2022-07-09T02:15:07;10.73;;;5.60;;
3155;SDS011;1588;50.892;7.082;2022-07-09T02:20:11;8.67;;;5.80;;
3155;SDS011;1588;50.892;7.082;2022-07-09T02:25:33;9.73;;;6.60;;
3155;SDS011;1588;50.892;7.082;2022-07-09T02:30:35;8.73;;;6.37;;
3155;SDS011;1588;50.892;7.082;2022-07-09T02:35:38;12.73;;;6.30;;
3155;SDS011;1588;50.892;7.082;2022-07-09T02:40:42;9.43;;;5.77;;
3155;SDS011;1588;50.892;7.082;2022-07-09T02:45:44;11.00;;;6.00;;
3155;SDS011;1588;50.892;7.082;2022-07-09T02:50:46;12.00;;;6.20;;
3155;SDS011;1588;50.892;7.082;2022-07-09T02:55:50;11.50;;;6.37;;
3155;SDS011;1588;50.892;7.082;2022-07-09T03:00:52;9.20;;;6.03;;
3155;SDS011;1588;50.892;7.082;2022-07-09T03:05:54;8.60;;;5.90;;
3155;SDS011;1588;50.892;7.082;2022-07-09T03:10:58;7.83;;;5.93;;
3155;SDS011;1588;50.892;7.082;2022-07-09T03:16:05;10.37;;;6.20;;
3155;SDS011;1588;50.892;7.082;2022-07-09T03:21:07;9.60;;;6.20;;
3155;SDS011;1588;50.892;7.082;2022-07-09T03:26:11;9.83;;;6.47;;
3155;SDS011;1588;50.892;7.082;2022-07-09T03:31:13;10.50;;;6.23;;
3155;SDS011;1588;50.892;7.082;2022-07-09T03:36:19;10.67;;;7.00;;
3155;SDS011;1588;50.892;7.082;2022-07-09T03:41:23;9.37;;;5.60;;
3155;SDS011;1588;50.892;7.082;2022-07-09T03:46:27;13.50;;;6.67;;
3155;SDS011;1588;50.892;7.082;2022-07-09T03:51:29;11.07;;;6.33;;
3155;SDS011;1588;50.892;7.082;2022-07-09T03:56:33;12.17;;;6.13;;
3155;SDS011;1588;50.892;7.082;2022-07-09T04:01:35;10.10;;;6.60;;
3155;SDS011;1588;50.892;7.082;2022-07-09T04:06:38;21.33;;;7.03;;
3155;SDS011;1588;50.892;7.082;2022-07-09T04:11:42;11.30;;;6.70;;
3155;SDS011;1588;50.892;7.082;2022-07-09T04:16:44;11.47;;;6.30;;
3155;SDS011;1588;50.892;7.082;2022-07-09T04:22:05;16.50;;;6.60;;
3155;SDS011;1588;50.892;7.082;2022-07-09T04:27:08;13.80;;;6.17;;
3155;SDS011;1588;50.892;7.082;2022-07-09T04:32:10;10.60;;;6.10;;
3155;SDS011;1588;50.892;7.082;2022-07-09T04:37:13;14.53;;;6.17;;
3155;SDS011;1588;50.892;7.082;2022-07-09T04:42:17;9.07;;;6.47;;
3155;SDS011;1588;50.892;7.082;2022-07-09T04:47:20;11.23;;;6.40;;
3155;SDS011;1588;50.892;7.082;2022-07-09T04:52:22;8.10;;;5.90;;
3155;SDS011;1588;50.892;7.082;2022-07-09T04:57:28;11.10;;;6.80;;
3155;SDS011;1588;50.892;7.082;2022-07-09T05:02:30;12.80;;;6.20;;
3155;SDS011;1588;50.892;7.082;2022-07-09T05:07:33;9.40;;;6.03;;
3155;SDS011;1588;50.892;7.082;2022-07-09T05:12:36;12.13;;;6.83;;
3155;SDS011;1588;50.892;7.082;2022-07-09T05:17:39;10.67;;;6.43;;
3155;SDS011;1588;50.892;7.082;2022-07-09T05:22:42;9.93;;;6.50;;
3155;SDS011;1588;50.892;7.082;2022-07-09T05:27:46;11.00;;;6.80;;
3155;SDS011;1588;50.892;7.082;2022-07-09T05:32:48;8.70;;;6.70;;
3155;SDS011;1588;50.892;7.082;2022-07-09T05:37:53;10.23;;;6.90;;
3155;SDS011;1588;50.892;7.082;2022-07-09T05:42:56;9.33;;;6.43;;
3155;SDS011;1588;50.892;7.082;2022-07-09T05:47:59;11.03;;;6.30;;
3155;SDS011;1588;50.892;7.082;2022-07-09T05:53:01;14.13;;;7.73;;
3155;SDS011;1588;50.892;7.082;2022-07-09T05:58:04;12.43;;;7.23;;
3155;SDS011;1588;50.892;7.082;2022-07-09T06:03:07;11.90;;;7.90;;
3155;SDS011;1588;50.892;7.082;2022-07-09T06:08:09;15.93;;;8.30;;
3155;SDS011;1588;50.892;7.082;2022-07-09T06:13:14;13.77;;;8.60;;
3155;SDS011;1588;50.892;7.082;2022-07-09T06:18:16;14.13;;;7.40;;
3155;SDS011;1588;50.892;7.082;2022-07-09T06:23:18;10.77;;;7.03;;
3155;SDS011;1588;50.892;7.082;2022-07-09T06:28:23;18.00;;;7.80;;
3155;SDS011;1588;50.892;7.082;2022-07-09T06:33:25;16.10;;;7.60;;
3155;SDS011;1588;50.892;7.082;2022-07-09T06:38:28;12.53;;;7.53;;
3155;SDS011;1588;50.892;7.082;2022-07-09T06:43:32;23.30;;;7.70;;
3155;SDS011;1588;50.892;7.082;2022-07-09T06:48:34;13.70;;;7.73;;
3155;SDS011;1588;50.892;7.082;2022-07-09T06:53:41;9.07;;;6.80;;
3155;SDS011;1588;50.892;7.082;2022-07-09T06:59:02;17.80;;;7.37;;
3155;SDS011;1588;50.892;7.082;2022-07-09T07:04:05;9.30;;;6.40;;
3155;SDS011;1588;50.892;7.082;2022-07-09T07:09:07;8.63;;;4.73;;
3155;SDS011;1588;50.892;7.082;2022-07-09T07:14:21;7.10;;;3.77;;
3155;SDS011;1588;50.892;7.082;2022-07-09T07:19:23;7.07;;;3.40;;
3155;SDS011;1588;50.892;7.082;2022-07-09T07:24:28;5.30;;;3.70;;
3155;SDS011;1588;50.892;7.082;2022-07-09T07:29:32;11.63;;;3.70;;
3155;SDS011;1588;50.892;7.082;2022-07-09T07:34:39;12.00;;;4.30;;
3155;SDS011;1588;50.892;7.082;2022-07-09T07:39:42;7.60;;;3.40;;
3155;SDS011;1588;50.892;7.082;2022-07-09T07:44:45;5.50;;;2.60;;
3155;SDS011;1588;50.892;7.082;2022-07-09T07:49:48;3.43;;;1.90;;
3155;SDS011;1588;50.892;7.082;2022-07-09T07:54:50;11.47;;;2.23;;
3155;SDS011;1588;50.892;7.082;2022-07-09T07:59:53;10.70;;;2.50;;
3155;SDS011;1588;50.892;7.082;2022-07-09T08:04:55;4.77;;;2.33;;
3155;SDS011;1588;50.892;7.082;2022-07-09T08:09:58;4.90;;;2.40;;
3155;SDS011;1588;50.892;7.082;2022-07-09T08:15:01;3.80;;;2.07;;
3155;SDS011;1588;50.892;7.082;2022-07-09T08:20:04;11.13;;;2.83;;
3155;SDS011;1588;50.892;7.082;2022-07-09T08:25:07;6.37;;;2.70;;
3155;SDS011;1588;50.892;7.082;2022-07-09T08:30:11;3.77;;;2.90;;
3155;SDS011;1588;50.892;7.082;2022-07-09T08:35:14;6.43;;;2.60;;
3155;SDS011;1588;50.892;7.082;2022-07-09T08:40:16;11.10;;;2.83;;
3155;SDS011;1588;50.892;7.082;2022-07-09T08:45:20;6.73;;;3.57;;
3155;SDS011;1588;50.892;7.082;2022-07-09T08:50:22;5.10;;;3.80;;
3155;SDS011;1588;50.892;7.082;2022-07-09T08:55:26;5.73;;;3.47;;
3155;SDS011;1588;50.892;7.082;2022-07-09T09:00:32;7.10;;;3.83;;
3155;SDS011;1588;50.892;7.082;2022-07-09T09:05:37;7.10;;;3.80;;
3155;SDS011;1588;50.892;7.082;2022-07-09T09:10:40;9.93;;;3.97;;
3155;SDS011;1588;50.892;7.082;2022-07-09T09:15:49;10.10;;;3.87;;
3155;SDS011;1588;50.892;7.082;2022-07-09T09:20:51;6.67;;;3.70;;
3155;SDS011;1588;50.892;7.082;2022-07-09T09:25:53;4.00;;;2.63;;
3155;SDS011;1588;50.892;7.082;2022-07-09T09:30:57;4.00;;;2.23;;
3155;SDS011;1588;50.892;7.082;2022-07-09T09:35:59;4.90;;;2.27;;
3155;SDS011;1588;50.892;7.082;2022-07-09T09:41:01;3.13;;;2.50;;
3155;SDS011;1588;50.892;7.082;2022-07-09T09:46:05;1.93;;;1.70;;
3155;SDS011;1588;50.892;7.082;2022-07-09T09:51:07;2.63;;;1.93;;
3155;SDS011;1588;50.892;7.082;2022-07-09T09:56:13;1.83;;;1.53;;
3155;SDS011;1588;50.892;7.082;2022-07-09T10:01:17;6.07;;;2.13;;
3155;SDS011;1588;50.892;7.082;2022-07-09T10:06:20;2.00;;;1.80;;
3155;SDS011;1588;50.892;7.082;2022-07-09T10:11:22;2.30;;;2.10;;
3155;SDS011;1588;50.892;7.082;2022-07-09T10:16:40;4.30;;;2.47;;
3155;SDS011;1588;50.892;7.082;2022-07-09T10:21:50;2.90;;;1.87;;
3155;SDS011;1588;50.892;7.082;2022-07-09T10:27:02;2.47;;;1.90;;
3155;SDS011;1588;50.892;7.082;2022-07-09T10:32:11;2.97;;;2.00;;
3155;SDS011;1588;50.892;7.082;2022-07-09T10:37:35;3.13;;;1.97;;
3155;SDS011;1588;50.892;7.082;2022-07-09T10:42:43;3.70;;;1.90;;
3155;SDS011;1588;50.892;7.082;2022-07-09T10:47:51;1.57;;;1.47;;
3155;SDS011;1588;50.892;7.082;2022-07-09T10:52:54;4.10;;;1.50;;
3155;SDS011;1588;50.892;7.082;2022-07-09T10:57:57;4.83;;;1.50;;
3155;SDS011;1588;50.892;7.082;2022-07-09T11:03:08;1.63;;;1.40;;
3155;SDS011;1588;50.892;7.082;2022-07-09T11:08:10;1.50;;;1.40;;
3155;SDS011;1588;50.892;7.082;2022-07-09T11:13:13;1.43;;;1.30;;
3155;SDS011;1588;50.892;7.082;2022-07-09T11:18:16;2.83;;;1.77;;
3155;SDS011;1588;50.892;7.082;2022-07-09T11:23:19;3.47;;;1.53;;
3155;SDS011;1588;50.892;7.082;2022-07-09T11:28:21;2.10;;;1.70;;
3155;SDS011;1588;50.892;7.082;2022-07-09T11:33:26;2.00;;;1.80;;
3155;SDS011;1588;50.892;7.082;2022-07-09T11:38:51;2.93;;;1.40;;
3155;SDS011;1588;50.892;7.082;2022-07-09T11:43:54;4.30;;;1.67;;
3155;SDS011;1588;50.892;7.082;2022-07-09T11:49:01;1.73;;;1.63;;
3155;SDS011;1588;50.892;7.082;2022-07-09T11:54:03;16.77;;;1.70;;
3155;SDS011;1588;50.892;7.082;2022-07-09T11:59:27;2.40;;;1.50;;
3155;SDS011;1588;50.892;7.082;2022-07-09T12:04:33;3.20;;;1.30;;
3155;SDS011;1588;50.892;7.082;2022-07-09T12:09:35;10.33;;;1.60;;
3155;SDS011;1588;50.892;7.082;2022-07-09T12:14:37;3.17;;;1.70;;
3155;SDS011;1588;50.892;7.082;2022-07-09T12:19:41;3.10;;;1.20;;
3155;SDS011;1588;50.892;7.082;2022-07-09T12:24:43;2.50;;;1.53;;
3155;SDS011;1588;50.892;7.082;2022-07-09T12:29:45;2.57;;;2.37;;
3155;SDS011;1588;50.892;7.082;2022-07-09T12:34:49;5.57;;;1.80;;
3155;SDS011;1588;50.892;7.082;2022-07-09T12:39:52;2.83;;;2.00;;
3155;SDS011;1588;50.892;7.082;2022-07-09T12:44:54;2.90;;;2.27;;
3155;SDS011;1588;50.892;7.082;2022-07-09T12:49:58;3.10;;;2.10;;
3155;SDS011;1588;50.892;7.082;2022-07-09T12:55:00;3.53;;;2.20;;
3155;SDS011;1588;50.892;7.082;2022-07-09T13:00:09;3.53;;;2.50;;
3155;SDS011;1588;50.892;7.082;2022-07-09T13:05:15;3.13;;;2.17;;
3155;SDS011;1588;50.892;7.082;2022-07-09T13:10:18;3.50;;;2.80;;
3155;SDS011;1588;50.892;7.082;2022-07-09T13:15:20;7.73;;;2.50;;
3155;SDS011;1588;50.892;7.082;2022-07-09T13:20:24;3.40;;;2.90;;
3155;SDS011;1588;50.892;7.082;2022-07-09T13:25:26;3.80;;;2.83;;
3155;SDS011;1588;50.892;7.082;2022-07-09T13:30:29;4.70;;;3.47;;
3155;SDS011;1588;50.892;7.082;2022-07-09T13:35:32;5.33;;;4.37;;
3155;SDS011;1588;50.892;7.082;2022-07-09T13:40:35;6.70;;;5.00;;
3155;SDS011;1588;50.892;7.082;2022-07-09T13:45:37;5.13;;;4.20;;
3155;SDS011;1588;50.892;7.082;2022-07-09T13:50:41;4.53;;;3.80;;
3155;SDS011;1588;50.892;7.082;2022-07-09T13:55:43;7.27;;;5.00;;
3155;SDS011;1588;50.892;7.082;2022-07-09T14:00:45;8.67;;;5.20;;
3155;SDS011;1588;50.892;7.082;2022-07-09T14:05:49;9.13;;;5.27;;
3155;SDS011;1588;50.892;7.082;2022-07-09T14:10:51;9.20;;;6.90;;
3155;SDS011;1588;50.892;7.082;2022-07-09T14:15:58;9.27;;;6.30;;
3155;SDS011;1588;50.892;7.082;2022-07-09T14:21:03;12.87;;;7.20;;
3155;SDS011;1588;50.892;7.082;2022-07-09T14:26:06;13.27;;;7.67;;
3155;SDS011;1588;50.892;7.082;2022-07-09T14:31:08;9.80;;;6.90;;
3155;SDS011;1588;50.892;7.082;2022-07-09T14:36:12;10.97;;;7.10;;
3155;SDS011;1588;50.892;7.082;2022-07-09T14:41:15;10.90;;;7.50;;
3155;SDS011;1588;50.892;7.082;2022-07-09T14:46:17;11.90;;;7.70;;
3155;SDS011;1588;50.892;7.082;2022-07-09T14:51:21;13.33;;;7.50;;
3155;SDS011;1588;50.892;7.082;2022-07-09T14:56:23;10.83;;;5.80;;
3155;SDS011;1588;50.892;7.082;2022-07-09T15:01:26;8.70;;;5.90;;
3155;SDS011;1588;50.892;7.082;2022-07-09T15:06:31;10.40;;;5.93;;
3155;SDS011;1588;50.892;7.082;2022-07-09T15:11:37;8.63;;;5.07;;
3155;SDS011;1588;50.892;7.082;2022-07-09T15:16:39;8.67;;;6.03;;
3155;SDS011;1588;50.892;7.082;2022-07-09T15:21:43;7.23;;;5.37;;
3155;SDS011;1588;50.892;7.082;2022-07-09T15:26:45;12.93;;;6.00;;
3155;SDS011;1588;50.892;7.082;2022-07-09T15:31:48;7.10;;;5.10;;
3155;SDS011;1588;50.892;7.082;2022-07-09T15:36:52;6.60;;;4.93;;
3155;SDS011;1588;50.892;7.082;2022-07-09T15:41:55;9.73;;;5.30;;
3155;SDS011;1588;50.892;7.082;2022-07-09T15:46:58;4.77;;;4.23;;
3155;SDS011;1588;50.892;7.082;2022-07-09T15:52:11;8.20;;;4.57;;
3155;SDS011;1588;50.892;7.082;2022-07-09T15:57:13;4.13;;;3.20;;
3155;SDS011;1588;50.892;7.082;2022-07-09T16:02:18;6.07;;;3.00;;
3155;SDS011;1588;50.892;7.082;2022-07-09T16:07:22;4.20;;;2.90;;
3155;SDS011;1588;50.892;7.082;2022-07-09T16:12:24;5.80;;;3.07;;
3155;SDS011;1588;50.892;7.082;2022-07-09T16:17:47;7.43;;;2.60;;
3155;SDS011;1588;50.892;7.082;2022-07-09T16:22:55;4.30;;;2.27;;
3155;SDS011;1588;50.892;7.082;2022-07-09T16:27:57;4.63;;;2.77;;
3155;SDS011;1588;50.892;7.082;2022-07-09T16:33:03;5.60;;;2.30;;
3155;SDS011;1588;50.892;7.082;2022-07-09T16:38:08;7.33;;;2.37;;
3155;SDS011;1588;50.892;7.082;2022-07-09T16:43:14;5.70;;;2.63;;
3155;SDS011;1588;50.892;7.082;2022-07-09T16:48:17;6.50;;;2.37;;
3155;SDS011;1588;50.892;7.082;2022-07-09T16:58:59;3.83;;;1.70;;
3155;SDS011;1588;50.892;7.082;2022-07-09T17:04:02;3.57;;;2.23;;
3155;SDS011;1588;50.892;7.082;2022-07-09T17:09:06;2.93;;;2.00;;
3155;SDS011;1588;50.892;7.082;2022-07-09T17:14:09;3.33;;;2.67;;
3155;SDS011;1588;50.892;7.082;2022-07-09T17:19:12;4.57;;;2.43;;
3155;SDS011;1588;50.892;7.082;2022-07-09T17:24:17;3.13;;;2.00;;
3155;SDS011;1588;50.892;7.082;2022-07-09T17:29:21;2.67;;;1.87;;
3155;SDS011;1588;50.892;7.082;2022-07-09T17:34:23;3.70;;;1.70;;
3155;SDS011;1588;50.892;7.082;2022-07-09T17:39:27;7.53;;;1.80;;
3155;SDS011;1588;50.892;7.082;2022-07-09T17:44:29;1.80;;;1.70;;
3155;SDS011;1588;50.892;7.082;2022-07-09T17:49:32;3.17;;;1.90;;
3155;SDS011;1588;50.892;7.082;2022-07-09T17:54:36;5.93;;;2.03;;
3155;SDS011;1588;50.892;7.082;2022-07-09T17:59:42;5.03;;;1.90;;
3155;SDS011;1588;50.892;7.082;2022-07-09T18:04:54;2.67;;;1.60;;
3155;SDS011;1588;50.892;7.082;2022-07-09T18:10:04;1.80;;;1.60;;
3155;SDS011;1588;50.892;7.082;2022-07-09T18:15:07;2.67;;;1.43;;
3155;SDS011;1588;50.892;7.082;2022-07-09T18:20:16;1.97;;;1.43;;
3155;SDS011;1588;50.892;7.082;2022-07-09T18:25:20;9.17;;;2.00;;
3155;SDS011;1588;50.892;7.082;2022-07-09T18:30:31;1.53;;;1.30;;
3155;SDS011;1588;50.892;7.082;2022-07-09T18:35:39;4.50;;;1.23;;
3155;SDS011;1588;50.892;7.082;2022-07-09T18:40:44;2.23;;;1.37;;
3155;SDS011;1588;50.892;7.082;2022-07-09T18:45:46;2.40;;;1.50;;
3155;SDS011;1588;50.892;7.082;2022-07-09T18:50:49;2.63;;;1.50;;
3155;SDS011;1588;50.892;7.082;2022-07-09T18:55:53;2.90;;;1.53;;
3155;SDS011;1588;50.892;7.082;2022-07-09T19:00:55;4.13;;;1.70;;
3155;SDS011;1588;50.892;7.082;2022-07-09T19:05:58;2.60;;;1.40;;
3155;SDS011;1588;50.892;7.082;2022-07-09T19:11:06;3.03;;;1.60;;
3155;SDS011;1588;50.892;7.082;2022-07-09T19:16:09;5.40;;;1.90;;
3155;SDS011;1588;50.892;7.082;2022-07-09T19:21:12;4.57;;;2.00;;
3155;SDS011;1588;50.892;7.082;2022-07-09T19:26:26;19.00;;;2.00;;
3155;SDS011;1588;50.892;7.082;2022-07-09T19:31:30;3.23;;;1.73;;
3155;SDS011;1588;50.892;7.082;2022-07-09T19:36:49;14.63;;;4.23;;
3155;SDS011;1588;50.892;7.082;2022-07-09T19:41:53;4.93;;;1.40;;
3155;SDS011;1588;50.892;7.082;2022-07-09T19:46:55;1.73;;;1.53;;
3155;SDS011;1588;50.892;7.082;2022-07-09T19:51:59;2.30;;;1.50;;
3155;SDS011;1588;50.892;7.082;2022-07-09T19:57:03;3.93;;;1.40;;
3155;SDS011;1588;50.892;7.082;2022-07-09T20:02:05;1.80;;;1.50;;
3155;SDS011;1588;50.892;7.082;2022-07-09T20:07:08;3.73;;;1.40;;
3155;SDS011;1588;50.892;7.082;2022-07-09T20:12:11;6.20;;;1.57;;
3155;SDS011;1588;50.892;7.082;2022-07-09T20:17:15;2.83;;;1.20;;
3155;SDS011;1588;50.892;7.082;2022-07-09T20:22:17;3.10;;;1.40;;
3155;SDS011;1588;50.892;7.082;2022-07-09T20:27:21;7.43;;;1.57;;
3155;SDS011;1588;50.892;7.082;2022-07-09T20:32:24;5.60;;;1.60;;
3155;SDS011;1588;50.892;7.082;2022-07-09T20:37:26;6.30;;;1.67;;
3155;SDS011;1588;50.892;7.082;2022-07-09T20:42:30;7.23;;;1.53;;
3155;SDS011;1588;50.892;7.082;2022-07-09T20:47:33;6.60;;;1.50;;
3155;SDS011;1588;50.892;7.082;2022-07-09T20:52:36;2.40;;;1.47;;
3155;SDS011;1588;50.892;7.082;2022-07-09T20:57:39;8.00;;;1.87;;
3155;SDS011;1588;50.892;7.082;2022-07-09T21:02:42;2.13;;;1.83;;
3155;SDS011;1588;50.892;7.082;2022-07-09T21:07:47;3.80;;;1.30;;
3155;SDS011;1588;50.892;7.082;2022-07-09T21:12:53;7.90;;;2.27;;
3155;SDS011;1588;50.892;7.082;2022-07-09T21:17:57;2.67;;;1.50;;
3155;SDS011;1588;50.892;7.082;2022-07-09T21:23:19;2.40;;;1.70;;
3155;SDS011;1588;50.892;7.082;2022-07-09T21:28:23;4.80;;;1.70;;
3155;SDS011;1588;50.892;7.082;2022-07-09T21:33:26;5.00;;;1.77;;
3155;SDS011;1588;50.892;7.082;2022-07-09T21:38:38;14.67;;;2.43;;
3155;SDS011;1588;50.892;7.082;2022-07-09T21:43:42;4.27;;;1.53;;
3155;SDS011;1588;50.892;7.082;2022-07-09T21:48:44;2.87;;;2.00;;
3155;SDS011;1588;50.892;7.082;2022-07-09T21:53:53;10.20;;;2.17;;
3155;SDS011;1588;50.892;7.082;2022-07-09T21:58:58;2.90;;;1.60;;
3155;SDS011;1588;50.892;7.082;2022-07-09T22:04:01;1.80;;;1.20;;
3155;SDS011;1588;50.892;7.082;2022-07-09T22:09:09;5.50;;;1.87;;
3155;SDS011;1588;50.892;7.082;2022-07-09T22:14:22;4.77;;;1.33;;
3155;SDS011;1588;50.892;7.082;2022-07-09T22:19:26;5.87;;;1.50;;
3155;SDS011;1588;50.892;7.082;2022-07-09T22:24:30;4.23;;;1.37;;
3155;SDS011;1588;50.892;7.082;2022-07-09T22:29:44;4.67;;;1.37;;
3155;SDS011;1588;50.892;7.082;2022-07-09T22:34:51;4.83;;;1.97;;
3155;SDS011;1588;50.892;7.082;2022-07-09T22:39:53;3.27;;;1.83;;
3155;SDS011;1588;50.892;7.082;2022-07-09T22:44:57;2.60;;;1.30;;
3155;SDS011;1588;50.892;7.082;2022-07-09T22:50:00;7.37;;;2.07;;
3155;SDS011;1588;50.892;7.082;2022-07-09T22:55:06;5.63;;;1.70;;
3155;SDS011;1588;50.892;7.082;2022-07-09T23:00:14;4.10;;;1.77;;
3155;SDS011;1588;50.892;7.082;2022-07-09T23:05:23;5.40;;;1.57;;
3155;SDS011;1588;50.892;7.082;2022-07-09T23:10:46;8.93;;;2.07;;
3155;SDS011;1588;50.892;7.082;2022-07-09T23:15:54;15.23;;;1.60;;
3155;SDS011;1588;50.892;7.082;2022-07-09T23:21:06;2.40;;;1.50;;
3155;SDS011;1588;50.892;7.082;2022-07-09T23:26:14;24.30;;;1.60;;
3155;SDS011;1588;50.892;7.082;2022-07-09T23:31:25;2.93;;;1.57;;
3155;SDS011;1588;50.892;7.082;2022-07-09T23:36:31;3.70;;;1.40;;
3155;SDS011;1588;50.892;7.082;2022-07-09T23:41:33;6.17;;;1.67;;
3155;SDS011;1588;50.892;7.082;2022-07-09T23:46:38;10.63;;;1.63;;
3155;SDS011;1588;50.892;7.082;2022-07-09T23:51:40;6.90;;;1.30;;
3155;SDS011;1588;50.892;7.082;2022-07-09T23:56:46;3.87;;;1.30;;
